Terminal Aerodrome Forecast
Issued by NWS

Home | Current Version | Previous Version | Text Only | Print | Product List | Glossary Off
Versions: 1 2 3 4 5 6 7 8 9 10 11 12 13 14 15 16 17 18 19

000
FTUS45 KGGW 241100
TAFSDY
TAF
KSDY 241128Z 2412/2512 32011KT P6SM OVC040
     FM241300 31011KT 4SM -RASN OVC018
     FM241500 30018KT 1SM -SN OVC011
     FM241800 30020KT P6SM VCSH OVC016
     FM250200 33018KT P6SM BKN040
      AMD LTD TO CLD VIS AND WIND=

USA.gov is the U.S. government's official web portal to all federal, state and local government web resources and services.